createdAt,value
2022-11-24T00:12:08.144Z,8.2
2022-11-24T00:22:10.653Z,8.1
2022-11-24T00:32:12.709Z,8.2
2022-11-24T00:42:14.736Z,8.1
2022-11-24T00:52:17.031Z,8.1
2022-11-24T01:02:19.327Z,7.9
2022-11-24T01:12:20.925Z,7.9
2022-11-24T01:22:23.373Z,7.8
2022-11-24T01:32:25.359Z,7.9
2022-11-24T01:42:27.323Z,7.8
2022-11-24T01:52:28.980Z,7.8
2022-11-24T02:02:31.022Z,7.8
2022-11-24T02:12:33.314Z,7.7
2022-11-24T02:22:35.503Z,7.8
2022-11-24T02:32:37.267Z,8
2022-11-24T02:42:39.250Z,8
2022-11-24T02:52:41.096Z,8.1
2022-11-24T03:02:43.041Z,8.2
2022-11-24T03:12:45.120Z,8.1
2022-11-24T03:22:47.535Z,8
2022-11-24T03:32:49.414Z,8.1
2022-11-24T03:42:51.505Z,8.3
2022-11-24T03:52:53.437Z,8.3
2022-11-24T04:02:55.189Z,8.4
2022-11-24T04:12:57.107Z,8.2
2022-11-24T04:22:59.339Z,8.2
2022-11-24T04:33:01.757Z,8.4
2022-11-24T04:43:04.005Z,8.5
2022-11-24T04:53:05.991Z,8.6
2022-11-24T05:03:08.324Z,8.6
2022-11-24T05:13:10.507Z,8.2
2022-11-24T05:23:13.011Z,7.9
2022-11-24T05:33:15.580Z,8
2022-11-24T05:43:17.414Z,8
2022-11-24T05:53:19.859Z,8
2022-11-24T06:03:22.362Z,7.8
2022-11-24T06:13:24.911Z,8.3
2022-11-24T06:23:26.861Z,8.4
2022-11-24T06:33:29.154Z,8.6
2022-11-24T06:43:31.430Z,8.7
2022-11-24T06:53:33.788Z,8.8
2022-11-24T07:03:36.124Z,8.7
2022-11-24T07:13:38.193Z,8.7
2022-11-24T07:23:40.228Z,8.7
2022-11-24T07:33:42.111Z,8.7
2022-11-24T07:43:44.239Z,8.6
2022-11-24T07:53:46.158Z,8.7
2022-11-24T08:03:48.516Z,8.7
2022-11-24T08:13:50.799Z,8.6
2022-11-24T08:23:53.418Z,8.2
2022-11-24T08:33:55.248Z,8.1
2022-11-24T08:43:57.549Z,8.2
2022-11-24T08:53:59.802Z,8.3
2022-11-24T09:04:01.920Z,8.3
2022-11-24T09:14:04.263Z,8.4
2022-11-24T09:24:06.770Z,8.3
2022-11-24T09:34:08.644Z,8.3
2022-11-24T09:44:11.062Z,8.3
2022-11-24T09:54:12.794Z,8.3
2022-11-24T10:04:14.721Z,8.2
2022-11-24T10:14:17.297Z,8.3
2022-11-24T10:34:21.492Z,8.6
2022-11-24T10:44:23.762Z,8.7
2022-11-24T10:54:26.008Z,8.7
2022-11-24T11:14:30.333Z,8.9
2022-11-24T11:34:35.065Z,9.4
2022-11-24T11:44:37.653Z,9.9
2022-11-24T11:54:39.514Z,9.8
2022-11-24T12:24:45.656Z,9.8
2022-11-24T12:34:47.934Z,9.9
2022-11-24T12:54:52.773Z,10
2022-11-24T13:04:55.096Z,10.2
2022-11-24T13:14:57.616Z,10.8
2022-11-24T13:24:59.875Z,10.3
2022-11-24T13:35:02.281Z,10.3
2022-11-24T13:45:04.259Z,10.7
2022-11-24T13:55:11.302Z,10.8
2022-11-24T14:05:08.190Z,10.2
2022-11-24T14:15:10.213Z,10.4
2022-11-24T14:25:12.546Z,10.4
2022-11-24T14:35:14.488Z,10.3
2022-11-24T14:45:16.328Z,9.9
2022-11-24T14:55:23.023Z,9.9
2022-11-24T15:05:19.912Z,9.5
2022-11-24T15:15:21.993Z,9.1
2022-11-24T15:25:24.605Z,8.9
2022-11-24T15:35:26.700Z,8.7
2022-11-24T15:45:28.423Z,8.2
2022-11-24T15:55:30.274Z,8.1
2022-11-24T16:05:32.107Z,8
2022-11-24T16:05:38.994Z,8
2022-11-24T16:15:41.193Z,7.7
2022-11-24T16:25:43.411Z,7.4
2022-11-24T16:35:45.378Z,7.1
2022-11-24T16:45:47.346Z,7.1
2022-11-24T16:55:49.844Z,6.7
2022-11-24T17:05:51.897Z,6.4
2022-11-24T17:15:54.398Z,6.2
2022-11-24T17:25:56.481Z,6
2022-11-24T17:35:58.385Z,5.9
2022-11-24T17:46:00.559Z,5.8
2022-11-24T17:56:02.324Z,6.9
2022-11-24T18:06:04.080Z,7.6
2022-11-24T18:16:05.774Z,7.8
2022-11-24T18:26:07.444Z,8
2022-11-24T18:36:09.815Z,7.9
2022-11-24T18:46:12.272Z,8
2022-11-24T18:56:14.039Z,7.8
2022-11-24T19:06:16.335Z,7.5
2022-11-24T19:16:18.146Z,7.3
2022-11-24T19:26:20.024Z,7.6
2022-11-24T19:36:22.369Z,7.5
2022-11-24T19:46:24.401Z,7.1
2022-11-24T19:56:26.352Z,6.9
2022-11-24T20:16:30.310Z,6.8
2022-11-24T20:36:34.297Z,6.5
2022-11-24T20:46:35.916Z,6.5
2022-11-24T20:56:38.050Z,6.3
2022-11-24T21:06:40.171Z,6.2
2022-11-24T21:16:42.462Z,6
2022-11-24T21:26:44.463Z,5.7
2022-11-24T21:36:46.903Z,5.6
2022-11-24T21:46:54.294Z,5.8
2022-11-24T21:56:50.903Z,5.7
2022-11-24T22:06:53.353Z,5.5
2022-11-24T22:16:55.733Z,6.2
2022-11-24T22:26:58.234Z,6
2022-11-24T22:37:00.335Z,6.1
2022-11-24T22:47:02.295Z,6.4
2022-11-24T22:57:04.548Z,6.3
2022-11-24T23:07:06.492Z,6.2
2022-11-24T23:27:10.361Z,6.4
2022-11-24T23:37:12.530Z,6.7
2022-11-24T23:47:14.186Z,6.6
2022-11-24T23:57:16.604Z,6.7
